Time;durP1;ratioP1;P1;durP2;ratioP2;P2;SDS_P1;SDS_P2;PMS_P1;PMS_P2;Temp;Humidity;BMP_temperature;BMP_pressure;BME280_temperature;BME280_humidity;BME280_pressure;Samples;Min_cycle;Max_cycle;Signal;HPM_P1;HPM_P2
2022/12/11 00:01:29;;;;;;;31.00;18.03;;;-0.10;97.30;;;;;;5064011;28;20230;-82
2022/12/11 00:03:58;;;;;;;28.53;17.37;;;0.00;97.40;;;;;;5062458;28;20230;-82
2022/12/11 00:06:28;;;;;;;26.83;17.03;;;-0.10;97.60;;;;;;5062845;28;20232;-81
2022/12/11 00:09:04;;;;;;;26.20;17.10;;;0.00;97.50;;;;;;5067906;28;20276;-82
2022/12/11 00:11:31;;;;;;;28.00;17.23;;;-0.10;97.00;;;;;;5068756;28;20205;-82
2022/12/11 00:13:58;;;;;;;27.57;17.17;;;-0.20;97.20;;;;;;5066789;28;20650;-84
2022/12/11 00:16:26;;;;;;;28.23;16.97;;;-0.30;97.50;;;;;;5061141;28;20204;-82
2022/12/11 00:18:53;;;;;;;30.10;17.27;;;-0.40;97.80;;;;;;5066084;28;20247;-82
2022/12/11 00:21:22;;;;;;;25.80;16.50;;;-0.30;97.30;;;;;;5062062;28;20284;-81
2022/12/11 00:23:48;;;;;;;29.50;18.10;;;-0.30;97.50;;;;;;5060284;28;20238;-81
2022/12/11 00:26:16;;;;;;;28.00;17.97;;;-0.40;97.60;;;;;;5059660;28;21331;-82
2022/12/11 00:28:44;;;;;;;28.33;17.43;;;-0.40;97.80;;;;;;5061835;28;20209;-82
2022/12/11 00:31:14;;;;;;;26.63;16.97;;;-0.40;97.80;;;;;;5061495;28;20223;-82
2022/12/11 00:33:43;;;;;;;29.37;17.20;;;-0.40;97.70;;;;;;5065421;28;20208;-82
2022/12/11 00:36:12;;;;;;;27.07;16.43;;;-0.40;97.60;;;;;;5067493;28;20293;-83
2022/12/11 00:38:39;;;;;;;24.97;15.47;;;-0.50;98.00;;;;;;5069359;28;20217;-84
2022/12/11 00:41:06;;;;;;;25.33;16.23;;;-0.50;97.80;;;;;;5069156;28;20565;-82
2022/12/11 00:43:33;;;;;;;29.87;18.13;;;-0.40;97.50;;;;;;5070469;28;20201;-82
2022/12/11 00:46:00;;;;;;;29.33;17.10;;;-0.50;97.40;;;;;;5070673;28;20224;-81
2022/12/11 00:48:27;;;;;;;27.53;16.73;;;-0.50;97.50;;;;;;5065298;28;20209;-81
2022/12/11 00:50:55;;;;;;;27.83;17.10;;;-0.50;97.50;;;;;;5068459;28;20694;-81
2022/12/11 00:53:22;;;;;;;26.33;17.17;;;-0.50;97.80;;;;;;5066624;28;20224;-81
2022/12/11 00:55:49;;;;;;;26.20;16.37;;;-0.60;97.60;;;;;;5060758;28;20211;-81
2022/12/11 00:58:16;;;;;;;31.40;17.60;;;-0.60;97.70;;;;;;5068902;28;20204;-82
2022/12/11 01:00:48;;;;;;;28.30;17.23;;;-0.60;97.80;;;;;;5062252;28;20227;-82
2022/12/11 01:03:17;;;;;;;28.37;17.73;;;-0.60;98.10;;;;;;5067145;28;20194;-81
2022/12/11 01:05:52;;;;;;;27.27;17.30;;;-0.60;97.80;;;;;;5069195;28;20239;-82
2022/12/11 01:08:21;;;;;;;27.17;17.23;;;-0.70;98.10;;;;;;5067681;28;20215;-81
2022/12/11 01:10:47;;;;;;;27.43;17.27;;;-0.80;98.20;;;;;;5063451;28;20200;-81
2022/12/11 01:13:16;;;;;;;26.33;16.67;;;-0.70;98.20;;;;;;5067942;28;20205;-81
2022/12/11 01:15:45;;;;;;;27.63;16.87;;;-0.80;98.10;;;;;;5063083;28;20330;-81
2022/12/11 01:18:14;;;;;;;27.30;16.17;;;-0.80;98.10;;;;;;5062714;28;20209;-81
2022/12/11 01:20:42;;;;;;;28.50;16.13;;;-0.80;98.10;;;;;;5066949;28;20300;-82
2022/12/11 01:23:12;;;;;;;25.77;15.80;;;-0.80;97.80;;;;;;5062858;28;20208;-81
2022/12/11 01:25:41;;;;;;;26.10;16.07;;;-0.70;97.80;;;;;;5067274;28;20232;-83
2022/12/11 01:28:09;;;;;;;25.63;15.90;;;-0.70;97.80;;;;;;5061201;28;20198;-83
2022/12/11 01:30:36;;;;;;;25.67;16.07;;;-0.70;97.60;;;;;;5061725;28;20313;-80
2022/12/11 01:33:04;;;;;;;27.03;15.60;;;-0.60;97.60;;;;;;5063992;28;20645;-82
2022/12/11 01:35:31;;;;;;;27.23;17.20;;;-0.50;97.30;;;;;;5062730;28;20728;-81
2022/12/11 01:37:59;;;;;;;27.60;16.27;;;-0.60;97.20;;;;;;5065231;28;20209;-81
2022/12/11 01:40:26;;;;;;;27.17;16.93;;;-0.60;97.50;;;;;;5064305;28;20204;-81
2022/12/11 01:42:54;;;;;;;25.37;15.77;;;-0.60;97.70;;;;;;5060961;28;20201;-78
2022/12/11 01:45:28;;;;;;;26.40;16.63;;;-0.50;97.80;;;;;;5064455;28;20301;-81
2022/12/11 01:47:59;;;;;;;26.23;16.77;;;-0.50;97.50;;;;;;5063241;28;20682;-82
2022/12/11 01:50:27;;;;;;;27.23;16.60;;;-0.50;97.50;;;;;;5061546;28;20297;-81
2022/12/11 01:52:54;;;;;;;25.87;16.57;;;-0.50;97.60;;;;;;5062389;28;20411;-81
2022/12/11 01:55:21;;;;;;;25.37;16.40;;;-0.60;97.30;;;;;;5059483;28;20674;-81
2022/12/11 01:57:54;;;;;;;23.10;15.10;;;-0.50;97.60;;;;;;5056308;28;20305;-82
2022/12/11 02:00:22;;;;;;;24.80;15.73;;;-0.50;97.10;;;;;;5067254;28;20288;-81
2022/12/11 02:02:52;;;;;;;26.47;16.00;;;-0.50;97.30;;;;;;5060610;28;20285;-81
2022/12/11 02:05:19;;;;;;;23.90;15.43;;;-0.50;97.40;;;;;;5063471;28;20276;-81
2022/12/11 02:07:50;;;;;;;24.07;14.97;;;-0.40;97.70;;;;;;5069133;28;20212;-82
2022/12/11 02:10:18;;;;;;;24.53;15.03;;;-0.40;96.70;;;;;;5063965;28;20661;-81
2022/12/11 02:12:54;;;;;;;25.57;15.03;;;-0.40;96.90;;;;;;5066796;28;20650;-82
2022/12/11 02:15:31;;;;;;;24.07;15.40;;;-0.50;97.00;;;;;;5068690;28;20250;-80
2022/12/11 02:18:07;;;;;;;22.13;14.50;;;-0.40;96.80;;;;;;5073167;28;20197;-81
2022/12/11 02:20:38;;;;;;;23.97;14.90;;;-0.40;97.20;;;;;;5068098;28;20310;-83
2022/12/11 02:23:41;;;;;;;23.20;14.50;;;-0.30;97.00;;;;;;5069408;28;20287;-82
2022/12/11 02:26:24;;;;;;;22.23;14.47;;;-0.30;96.60;;;;;;4988039;28;20231;-81
2022/12/11 02:28:56;;;;;;;22.73;14.27;;;-0.20;96.90;;;;;;4992373;28;20294;-81
2022/12/11 02:31:29;;;;;;;22.63;14.67;;;-0.30;96.60;;;;;;4990668;28;20280;-79
2022/12/11 02:34:03;;;;;;;20.80;13.23;;;-0.30;96.50;;;;;;4989425;28;20222;-81
2022/12/11 02:36:34;;;;;;;20.40;14.10;;;-0.30;96.60;;;;;;4985350;28;20295;-80
2022/12/11 02:39:05;;;;;;;21.40;13.57;;;-0.30;96.30;;;;;;4987466;28;20212;-80
2022/12/11 02:41:33;;;;;;;22.90;14.40;;;-0.20;96.40;;;;;;4989158;28;20218;-81
2022/12/11 02:44:04;;;;;;;21.03;13.67;;;-0.20;96.20;;;;;;4988370;28;20294;-82
2022/12/11 02:46:35;;;;;;;20.60;13.03;;;-0.30;96.20;;;;;;4984157;28;20234;-80
2022/12/11 02:49:06;;;;;;;22.40;14.07;;;-0.30;96.60;;;;;;4986592;28;20282;-80
2022/12/11 02:51:39;;;;;;;20.37;13.07;;;-0.30;96.10;;;;;;4989890;28;20235;-80
2022/12/11 02:54:08;;;;;;;21.33;13.80;;;-0.30;96.30;;;;;;4987947;28;20597;-83
2022/12/11 02:56:41;;;;;;;22.80;14.13;;;-0.30;96.60;;;;;;4989285;28;20215;-83
2022/12/11 02:59:16;;;;;;;20.67;13.60;;;-0.30;96.40;;;;;;4986147;28;20204;-82
2022/12/11 03:01:43;;;;;;;18.20;12.13;;;-0.40;96.50;;;;;;4988175;28;20612;-80
2022/12/11 03:04:10;;;;;;;21.00;13.00;;;-0.30;96.60;;;;;;5051722;28;20208;-81
2022/12/11 03:06:41;;;;;;;18.20;12.30;;;-0.30;96.20;;;;;;5064034;28;20696;-80
2022/12/11 03:09:08;;;;;;;20.63;13.13;;;-0.20;95.90;;;;;;5071124;28;20292;-81
2022/12/11 03:11:35;;;;;;;18.93;12.30;;;-0.20;95.60;;;;;;5070766;28;20300;-82
2022/12/11 03:14:03;;;;;;;19.77;12.43;;;-0.20;95.80;;;;;;5066581;28;20195;-82
2022/12/11 03:16:35;;;;;;;22.87;13.70;;;-0.30;96.00;;;;;;5067162;28;20205;-82
2022/12/11 03:19:11;;;;;;;17.20;11.50;;;-0.40;96.20;;;;;;5069552;28;20208;-81
2022/12/11 03:21:44;;;;;;;17.07;11.97;;;-0.30;95.90;;;;;;5065941;28;20233;-79
2022/12/11 03:24:19;;;;;;;15.20;10.83;;;-0.30;95.50;;;;;;5069016;28;20712;-80
2022/12/11 03:26:53;;;;;;;17.53;12.10;;;-0.30;95.20;;;;;;5073813;28;20227;-82
2022/12/11 03:29:23;;;;;;;18.53;12.00;;;-0.30;95.00;;;;;;5071805;28;20665;-81
2022/12/11 03:32:03;;;;;;;18.73;12.10;;;-0.40;95.50;;;;;;5075178;28;20280;-82
2022/12/11 03:34:39;;;;;;;18.27;11.73;;;-0.50;95.50;;;;;;5070010;28;20285;-82
2022/12/11 03:37:07;;;;;;;16.27;10.50;;;-0.40;95.40;;;;;;5062726;28;20236;-84
2022/12/11 03:39:44;;;;;;;16.00;11.07;;;-0.50;95.20;;;;;;5067851;28;20238;-81
2022/12/11 03:42:14;;;;;;;16.97;11.63;;;-0.60;95.10;;;;;;5068561;28;20225;-81
2022/12/11 03:44:48;;;;;;;17.07;11.10;;;-0.50;95.40;;;;;;5066639;28;20291;-81
2022/12/11 03:47:20;;;;;;;17.57;11.60;;;-0.50;95.50;;;;;;5069010;28;20648;-82
2022/12/11 03:49:49;;;;;;;17.00;12.00;;;-0.50;95.10;;;;;;5070142;28;20554;-81
2022/12/11 03:52:23;;;;;;;18.13;11.83;;;-0.50;95.50;;;;;;5073900;28;20205;-82
2022/12/11 03:54:51;;;;;;;16.47;10.90;;;-0.50;95.00;;;;;;5068754;28;20582;-81
2022/12/11 03:57:21;;;;;;;18.17;11.63;;;-0.50;95.50;;;;;;5067833;28;20245;-82
2022/12/11 03:59:56;;;;;;;16.43;11.20;;;-0.50;95.70;;;;;;5073712;28;20634;-81
2022/12/11 04:02:30;;;;;;;17.47;11.03;;;-0.40;95.50;;;;;;5067158;28;20722;-80
2022/12/11 04:04:57;;;;;;;16.40;11.37;;;-0.40;95.00;;;;;;5068062;28;20257;-80
2022/12/11 04:07:24;;;;;;;18.33;12.33;;;-0.40;94.90;;;;;;5064922;28;20814;-81
2022/12/11 04:09:52;;;;;;;16.57;11.03;;;-0.40;94.80;;;;;;5064198;28;20201;-80
2022/12/11 04:12:19;;;;;;;18.10;11.30;;;-0.40;94.90;;;;;;5065572;28;20211;-81
2022/12/11 04:15:04;;;;;;;17.77;11.23;;;-0.50;95.30;;;;;;5063486;28;20566;-80
2022/12/11 04:26:05;;;;;;;15.40;10.43;;;-0.60;95.00;;;;;;5002593;28;20260;-81
2022/12/11 04:28:32;;;;;;;16.03;10.83;;;-0.50;94.70;;;;;;5003824;28;20215;-81
2022/12/11 04:30:59;;;;;;;17.57;10.67;;;-0.60;94.50;;;;;;5007620;28;20652;-81
2022/12/11 04:33:28;;;;;;;15.80;10.53;;;-0.60;94.50;;;;;;5003848;28;20213;-80
2022/12/11 04:35:59;;;;;;;17.27;11.17;;;-0.60;94.30;;;;;;5007753;28;20209;-82
2022/12/11 04:38:26;;;;;;;16.03;10.53;;;-0.70;94.40;;;;;;5004965;28;20627;-82
2022/12/11 04:40:58;;;;;;;18.30;11.23;;;-0.80;94.70;;;;;;5003750;28;20220;-83
2022/12/11 04:43:26;;;;;;;18.43;11.73;;;-0.80;94.70;;;;;;5004573;28;20199;-79
2022/12/11 04:46:02;;;;;;;16.90;11.13;;;-0.70;94.80;;;;;;5005980;28;20213;-83
2022/12/11 04:48:30;;;;;;;18.73;11.00;;;-0.70;94.50;;;;;;5003940;28;20580;-79
2022/12/11 04:50:57;;;;;;;15.23;10.47;;;-0.60;94.60;;;;;;5004959;28;20203;-81
2022/12/11 04:53:24;;;;;;;15.23;10.43;;;-0.60;94.50;;;;;;5007275;28;20592;-82
2022/12/11 04:55:52;;;;;;;16.37;10.73;;;-0.60;95.00;;;;;;5006118;28;20213;-79
2022/12/11 04:58:34;;;;;;;15.90;10.67;;;-0.60;94.90;;;;;;5015709;28;20207;-81
2022/12/11 05:01:06;;;;;;;19.27;10.43;;;-0.50;93.90;;;;;;5058557;28;20204;-81
2022/12/11 05:03:35;;;;;;;14.30;10.10;;;-0.60;93.90;;;;;;5070026;28;20208;-79
2022/12/11 05:06:05;;;;;;;15.63;10.63;;;-0.60;94.10;;;;;;5070611;28;20679;-81
2022/12/11 05:08:34;;;;;;;13.60;9.40;;;-0.60;93.20;;;;;;5072892;28;20204;-82
2022/12/11 05:11:03;;;;;;;15.30;10.07;;;-0.70;93.40;;;;;;5060197;28;20574;-81
2022/12/11 05:13:31;;;;;;;15.10;9.70;;;-0.50;92.80;;;;;;5072455;28;20607;-82
2022/12/11 05:15:58;;;;;;;14.20;9.53;;;-0.60;92.80;;;;;;5071069;28;20317;-82
2022/12/11 05:18:25;;;;;;;14.10;9.57;;;-0.70;93.00;;;;;;5059198;28;20660;-81
2022/12/11 05:20:58;;;;;;;16.23;9.37;;;-0.70;93.30;;;;;;5075257;28;20214;-81
2022/12/11 05:23:28;;;;;;;15.77;10.03;;;-0.80;93.90;;;;;;5067489;28;20213;-81
2022/12/11 05:26:00;;;;;;;14.27;9.77;;;-0.60;93.60;;;;;;5060940;28;20224;-82
2022/12/11 05:28:32;;;;;;;15.37;10.63;;;-0.70;93.30;;;;;;5066525;28;20701;-82
2022/12/11 05:31:01;;;;;;;17.77;10.87;;;-0.70;93.90;;;;;;5061627;28;20212;-82
2022/12/11 05:33:29;;;;;;;15.43;10.67;;;-0.70;93.90;;;;;;5059916;28;20202;-82
2022/12/11 05:35:57;;;;;;;14.13;8.80;;;-0.70;93.90;;;;;;5065531;28;20212;-81
2022/12/11 05:38:24;;;;;;;14.07;9.60;;;-0.70;93.90;;;;;;5067523;28;20677;-81
2022/12/11 05:41:02;;;;;;;13.17;8.60;;;-0.70;92.70;;;;;;5068734;28;20592;-81
2022/12/11 05:43:32;;;;;;;12.43;8.60;;;-0.60;91.80;;;;;;5065133;28;20216;-81
2022/12/11 05:46:06;;;;;;;11.97;8.03;;;-0.60;91.80;;;;;;5068591;28;20209;-82
2022/12/11 05:48:33;;;;;;;12.03;8.27;;;-0.60;91.80;;;;;;5064138;28;20236;-82
2022/12/11 05:51:03;;;;;;;12.33;8.30;;;-0.50;90.50;;;;;;5066586;28;20209;-82
2022/12/11 05:53:35;;;;;;;12.13;8.30;;;-0.60;91.20;;;;;;5070128;28;20781;-82
2022/12/11 05:56:03;;;;;;;14.30;8.47;;;-0.60;91.20;;;;;;5071036;28;20201;-81
2022/12/11 05:58:34;;;;;;;12.30;8.30;;;-0.60;91.50;;;;;;5073853;28;20213;-81
2022/12/11 06:01:01;;;;;;;12.90;8.63;;;-0.60;91.80;;;;;;5066589;28;20203;-81
2022/12/11 06:03:34;;;;;;;12.40;8.23;;;-0.70;91.90;;;;;;5067060;28;20296;-80
2022/12/11 06:06:07;;;;;;;10.67;8.00;;;-0.60;91.90;;;;;;5068846;28;20606;-81
2022/12/11 06:08:34;;;;;;;12.13;8.30;;;-0.60;90.80;;;;;;5068363;28;20227;-85
2022/12/11 06:11:01;;;;;;;11.33;8.00;;;-0.70;91.00;;;;;;5073320;28;20216;-81
2022/12/11 06:13:29;;;;;;;11.67;8.03;;;-0.70;91.20;;;;;;5068545;28;20385;-82
2022/12/11 06:16:06;;;;;;;10.83;7.63;;;-0.70;91.70;;;;;;5066846;28;20291;-81
2022/12/11 06:18:36;;;;;;;10.90;7.77;;;-0.80;91.40;;;;;;5063950;28;20205;-82
2022/12/11 06:21:10;;;;;;;12.10;8.20;;;-0.70;91.20;;;;;;5067520;28;20208;-81
2022/12/11 06:23:37;;;;;;;12.70;8.03;;;-0.60;90.80;;;;;;5072887;28;20208;-81
2022/12/11 06:26:04;;;;;;;14.10;9.20;;;-0.60;90.80;;;;;;5073509;28;20211;-82
2022/12/11 06:28:31;;;;;;;11.70;8.47;;;-0.60;90.70;;;;;;5067072;28;20720;-81
2022/12/11 06:30:59;;;;;;;13.37;8.50;;;-0.70;91.10;;;;;;5071312;28;20197;-83
2022/12/11 06:33:26;;;;;;;12.57;8.33;;;-0.80;91.10;;;;;;5066367;28;20215;-81
2022/12/11 06:35:53;;;;;;;13.90;8.90;;;-0.70;91.30;;;;;;5063903;28;20755;-82
2022/12/11 06:38:21;;;;;;;13.80;8.97;;;-0.70;91.60;;;;;;5069440;28;20204;-81
2022/12/11 06:40:55;;;;;;;19.07;9.27;;;-0.60;91.90;;;;;;5069077;28;20204;-81
2022/12/11 06:43:22;;;;;;;13.40;8.93;;;-0.60;92.30;;;;;;5067586;28;20204;-83
2022/12/11 06:45:52;;;;;;;12.93;9.17;;;-0.70;92.30;;;;;;5070672;28;20679;-81
2022/12/11 06:48:20;;;;;;;17.13;10.80;;;-0.70;92.20;;;;;;5062743;28;20223;-81
2022/12/11 06:50:47;;;;;;;14.70;9.70;;;-0.60;92.10;;;;;;5066055;28;20228;-81
2022/12/11 06:53:15;;;;;;;15.37;10.10;;;-0.70;92.10;;;;;;5073781;28;20233;-81
2022/12/11 06:55:43;;;;;;;14.73;9.63;;;-0.80;92.70;;;;;;5068159;28;20205;-81
2022/12/11 06:58:16;;;;;;;15.23;9.63;;;-0.80;93.40;;;;;;5075323;28;20728;-81
2022/12/11 07:00:43;;;;;;;16.80;10.73;;;-0.90;93.60;;;;;;5070320;28;20204;-81
2022/12/11 07:03:12;;;;;;;18.00;11.27;;;-1.00;93.40;;;;;;5074981;28;20277;-83
2022/12/11 07:05:39;;;;;;;16.43;11.23;;;-1.00;93.80;;;;;;5071637;28;20603;-82
2022/12/11 07:08:06;;;;;;;17.97;11.43;;;-1.00;93.80;;;;;;5066666;28;20791;-82
2022/12/11 07:10:34;;;;;;;17.70;11.57;;;-1.10;94.50;;;;;;5064174;28;20204;-85
2022/12/11 07:13:02;;;;;;;17.23;11.57;;;-1.00;94.80;;;;;;5070950;28;20201;-82
2022/12/11 07:15:34;;;;;;;17.23;11.53;;;-0.80;94.50;;;;;;5065187;28;20216;-82
2022/12/11 07:18:04;;;;;;;19.40;12.10;;;-0.80;93.90;;;;;;5072371;28;20222;-82
2022/12/11 07:20:31;;;;;;;18.53;11.17;;;-0.70;94.30;;;;;;5065051;28;20295;-82
2022/12/11 07:22:58;;;;;;;19.17;11.63;;;-0.70;93.90;;;;;;5066114;28;20291;-82
2022/12/11 07:25:25;;;;;;;17.53;11.80;;;-0.70;93.90;;;;;;5071036;28;20577;-81
2022/12/11 07:27:52;;;;;;;18.17;11.47;;;-0.70;93.90;;;;;;5067454;28;20550;-82
2022/12/11 07:30:20;;;;;;;19.93;12.83;;;-0.70;94.20;;;;;;5067443;28;20291;-83
2022/12/11 07:32:47;;;;;;;17.43;10.83;;;-0.70;94.40;;;;;;5068035;28;20295;-82
2022/12/11 07:35:14;;;;;;;19.90;12.73;;;-0.80;94.40;;;;;;5070455;28;20228;-82
2022/12/11 07:37:46;;;;;;;19.23;12.07;;;-0.70;94.20;;;;;;5070248;28;20288;-82
2022/12/11 07:40:13;;;;;;;17.43;11.57;;;-0.70;94.30;;;;;;5071824;28;20201;-82
2022/12/11 07:42:52;;;;;;;18.73;12.00;;;-0.80;94.20;;;;;;5066290;28;20200;-81
2022/12/11 07:45:20;;;;;;;17.27;11.57;;;-0.80;94.40;;;;;;5061948;28;20284;-82
2022/12/11 07:47:47;;;;;;;19.30;12.07;;;-0.70;94.70;;;;;;5064292;28;20770;-82
2022/12/11 07:50:14;;;;;;;17.37;11.63;;;-0.70;93.90;;;;;;5061381;28;20569;-82
2022/12/11 07:52:41;;;;;;;18.20;12.50;;;-0.70;94.00;;;;;;5065467;28;20223;-82
2022/12/11 07:55:09;;;;;;;20.33;12.40;;;-0.70;94.10;;;;;;5065694;28;20228;-84
2022/12/11 07:57:36;;;;;;;18.60;11.97;;;-0.70;94.50;;;;;;5066489;28;20212;-82
2022/12/11 08:00:04;;;;;;;16.77;11.53;;;-0.70;94.10;;;;;;5065581;28;20205;-80
2022/12/11 08:02:32;;;;;;;18.23;12.03;;;-0.50;93.90;;;;;;5068393;28;20208;-81
2022/12/11 08:04:59;;;;;;;17.67;12.00;;;-0.40;93.90;;;;;;5070013;28;20292;-81
2022/12/11 08:07:26;;;;;;;19.57;12.60;;;-0.50;93.90;;;;;;5067473;28;20683;-80
2022/12/11 08:09:53;;;;;;;18.00;12.07;;;-0.40;93.90;;;;;;5066229;28;20296;-83
2022/12/11 08:12:22;;;;;;;19.90;12.83;;;-0.50;93.90;;;;;;5066151;28;20197;-82
2022/12/11 08:14:52;;;;;;;21.27;13.27;;;-0.50;94.20;;;;;;5061831;28;20577;-83
2022/12/11 08:17:19;;;;;;;20.60;12.97;;;-0.50;93.90;;;;;;5065868;28;20217;-82
2022/12/11 08:19:48;;;;;;;18.20;11.93;;;-0.50;93.90;;;;;;5065422;28;20639;-82
2022/12/11 08:22:16;;;;;;;18.07;12.13;;;-0.40;93.90;;;;;;5069891;28;20764;-82
2022/12/11 08:24:43;;;;;;;18.93;12.40;;;-0.50;93.90;;;;;;5058714;28;20254;-82
2022/12/11 08:27:10;;;;;;;20.60;13.13;;;-0.40;93.90;;;;;;5060423;28;20292;-83
2022/12/11 08:29:37;;;;;;;20.43;12.83;;;-0.40;93.90;;;;;;5060324;28;20565;-81
2022/12/11 08:32:04;;;;;;;19.50;13.30;;;-0.40;93.90;;;;;;5060144;28;20347;-82
2022/12/11 08:34:31;;;;;;;17.37;12.37;;;-0.30;94.00;;;;;;5016873;28;20241;-82
2022/12/11 08:37:00;;;;;;;19.70;12.73;;;-0.30;94.00;;;;;;4996181;28;20219;-82
2022/12/11 08:39:27;;;;;;;19.30;12.87;;;-0.20;93.70;;;;;;4994423;28;20231;-84
2022/12/11 08:41:54;;;;;;;19.13;12.57;;;0.00;93.60;;;;;;4990093;28;20230;-84
2022/12/11 08:44:23;;;;;;;19.57;12.87;;;0.10;92.80;;;;;;4995560;28;20230;-86
2022/12/11 08:46:50;;;;;;;16.90;11.97;;;0.20;92.80;;;;;;4992762;28;20286;-85
2022/12/11 08:49:18;;;;;;;20.30;12.90;;;0.10;92.00;;;;;;4994531;28;20231;-87
2022/12/11 08:51:45;;;;;;;18.73;12.03;;;0.10;92.30;;;;;;5002122;28;20779;-84
2022/12/11 08:54:13;;;;;;;16.83;11.53;;;0.00;92.80;;;;;;5004338;28;20223;-84
2022/12/11 08:56:40;;;;;;;17.00;11.83;;;0.10;91.70;;;;;;5000893;28;20253;-82
2022/12/11 08:59:07;;;;;;;17.23;11.30;;;0.10;90.90;;;;;;5003334;28;20207;-81
2022/12/11 09:01:34;;;;;;;16.60;11.63;;;0.30;90.90;;;;;;5002800;28;20589;-81
2022/12/11 09:04:01;;;;;;;17.50;11.60;;;0.40;91.40;;;;;;5003940;28;20250;-81
2022/12/11 09:06:29;;;;;;;15.40;10.67;;;0.30;90.80;;;;;;5003974;28;20705;-80
2022/12/11 09:08:59;;;;;;;17.33;11.73;;;0.30;90.30;;;;;;4997689;28;20436;-81
2022/12/11 09:11:30;;;;;;;16.00;11.07;;;0.20;90.70;;;;;;4994187;28;20204;-81
2022/12/11 09:13:58;;;;;;;14.93;9.83;;;0.10;91.10;;;;;;5003604;28;20201;-81
2022/12/11 09:16:26;;;;;;;15.23;10.40;;;0.10;90.60;;;;;;5004106;28;20725;-81
2022/12/11 09:18:55;;;;;;;14.00;10.17;;;0.00;90.70;;;;;;5004112;28;20580;-82
2022/12/11 09:21:24;;;;;;;15.13;9.90;;;0.00;90.70;;;;;;5000632;28;20229;-80
2022/12/11 09:23:54;;;;;;;16.47;10.10;;;0.00;91.00;;;;;;5001797;28;20207;-79
2022/12/11 09:26:21;;;;;;;14.33;9.47;;;0.00;90.90;;;;;;5001995;28;20203;-81
2022/12/11 09:28:52;;;;;;;13.10;9.27;;;0.00;90.20;;;;;;5005641;28;20223;-81
2022/12/11 09:31:24;;;;;;;14.73;10.10;;;0.20;90.80;;;;;;5007951;28;20731;-80
2022/12/11 09:33:53;;;;;;;14.30;10.03;;;0.20;90.50;;;;;;5007201;28;20204;-80
2022/12/11 09:36:20;;;;;;;13.17;9.43;;;0.20;90.20;;;;;;5012892;28;21880;-82
2022/12/11 09:38:48;;;;;;;13.27;9.13;;;0.40;89.20;;;;;;5007038;28;20209;-82
2022/12/11 09:41:35;;;;;;;13.20;9.10;;;0.50;89.40;;;;;;5001690;28;20981;-83
2022/12/11 09:44:22;;;;;;;10.73;8.10;;;0.50;86.10;;;;;;5008864;28;20286;-85
2022/12/11 09:46:50;;;;;;;10.70;7.50;;;0.50;86.10;;;;;;5012482;28;20195;-82
2022/12/11 09:49:39;;;;;;;15.07;9.20;;;0.60;85.80;;;;;;5005618;28;20219;-82
2022/12/11 09:55:35;;;;;;;12.33;8.27;;;0.40;86.00;;;;;;5008612;28;20329;-82
2022/12/11 09:58:22;;;;;;;11.60;8.13;;;0.30;86.00;;;;;;5004334;28;20351;-84
2022/12/11 10:01:03;;;;;;;11.27;8.10;;;0.40;86.00;;;;;;5003515;28;20231;-82
2022/12/11 10:07:02;;;;;;;11.77;7.83;;;0.40;86.00;;;;;;5001309;28;20813;-83
2022/12/11 10:09:49;;;;;;;10.40;7.73;;;0.40;86.00;;;;;;5008168;28;20667;-83
2022/12/11 10:12:50;;;;;;;11.43;7.83;;;0.60;85.30;;;;;;5009151;28;20207;-82
2022/12/11 10:15:38;;;;;;;11.43;8.13;;;0.60;83.90;;;;;;5005592;28;20206;-85
2022/12/11 10:18:58;;;;;;;10.20;7.63;;;0.50;86.10;;;;;;5013170;28;20199;-83
2022/12/11 10:21:29;;;;;;;10.63;7.37;;;0.50;86.10;;;;;;5007346;28;20243;-82
2022/12/11 10:24:11;;;;;;;10.57;7.50;;;0.60;86.10;;;;;;5010772;28;20196;-82
2022/12/11 10:26:49;;;;;;;10.43;7.30;;;0.40;83.90;;;;;;5008684;28;20276;-83
2022/12/11 10:29:19;;;;;;;9.20;7.17;;;0.50;81.90;;;;;;5008718;28;20212;-83
2022/12/11 10:31:50;;;;;;;10.37;7.73;;;0.70;81.30;;;;;;5007086;28;20667;-83
2022/12/11 10:34:29;;;;;;;9.97;7.03;;;0.70;81.70;;;;;;5006617;28;20200;-82
2022/12/11 10:36:58;;;;;;;11.07;7.63;;;0.50;82.00;;;;;;5004212;28;20197;-83
2022/12/11 10:39:29;;;;;;;8.90;6.77;;;0.50;82.90;;;;;;5009109;28;20298;-82
2022/12/11 10:42:16;;;;;;;10.33;7.33;;;0.20;82.10;;;;;;5014043;28;20721;-82
2022/12/11 10:44:56;;;;;;;11.63;7.77;;;0.10;84.90;;;;;;5008361;28;20686;-83
2022/12/11 10:47:46;;;;;;;11.03;7.80;;;0.10;83.70;;;;;;5008921;28;20199;-82
2022/12/11 10:50:28;;;;;;;10.23;7.80;;;0.10;85.50;;;;;;4997854;28;20675;-87
2022/12/11 10:52:58;;;;;;;10.50;7.73;;;0.10;83.90;;;;;;5010995;28;20197;-82
2022/12/11 10:55:43;;;;;;;10.30;7.67;;;0.20;84.70;;;;;;5009799;28;20278;-80
2022/12/11 10:58:37;;;;;;;12.13;7.90;;;0.10;84.80;;;;;;5008418;28;20556;-81
2022/12/11 11:01:15;;;;;;;11.17;7.83;;;0.10;85.90;;;;;;5008883;28;20196;-81
2022/12/11 11:03:53;;;;;;;10.87;7.63;;;0.40;85.40;;;;;;5005840;28;20202;-82
2022/12/11 11:06:24;;;;;;;10.77;7.33;;;0.40;82.80;;;;;;5010448;28;20195;-81
2022/12/11 11:09:31;;;;;;;11.10;6.73;;;0.40;82.10;;;;;;4999687;28;20244;-82
2022/12/11 11:12:00;;;;;;;11.33;7.60;;;0.30;83.20;;;;;;5001409;28;20316;-83
2022/12/11 11:14:41;;;;;;;11.00;7.90;;;0.30;83.30;;;;;;5004738;28;20714;-82
2022/12/11 11:17:17;;;;;;;11.23;7.87;;;0.50;82.60;;;;;;5000618;28;20253;-83
2022/12/11 11:19:48;;;;;;;11.90;7.33;;;0.50;82.50;;;;;;5001448;28;20210;-83
2022/12/11 11:22:17;;;;;;;12.57;8.20;;;0.50;81.50;;;;;;5004400;28;20199;-84
2022/12/11 11:24:59;;;;;;;9.80;7.30;;;0.70;81.00;;;;;;5006752;28;20254;-83
2022/12/11 11:27:40;;;;;;;10.13;7.60;;;0.60;81.00;;;;;;5005414;28;20199;-83
2022/12/11 11:30:25;;;;;;;11.43;7.97;;;0.50;81.00;;;;;;5000253;28;20222;-84
2022/12/11 11:32:57;;;;;;;10.77;7.30;;;0.50;81.70;;;;;;5005768;28;20317;-86
2022/12/11 11:35:26;;;;;;;10.13;7.33;;;0.50;80.90;;;;;;5008898;28;20211;-81
2022/12/11 11:38:04;;;;;;;8.67;6.80;;;0.40;79.80;;;;;;5011907;28;20210;-83
2022/12/11 11:40:36;;;;;;;10.23;7.30;;;0.50;78.50;;;;;;5007602;28;20206;-82
2022/12/11 11:43:15;;;;;;;10.70;7.50;;;0.60;78.90;;;;;;5002912;28;20682;-83
2022/12/11 11:45:58;;;;;;;9.27;6.83;;;0.60;78.70;;;;;;5003706;28;20213;-82
2022/12/11 11:48:36;;;;;;;9.13;6.87;;;0.40;77.90;;;;;;5001443;28;20244;-83
2022/12/11 11:51:15;;;;;;;8.37;5.93;;;0.40;78.50;;;;;;5012976;28;20230;-83
2022/12/11 11:53:47;;;;;;;8.43;6.20;;;0.20;79.80;;;;;;5009945;28;20697;-82
2022/12/11 11:56:21;;;;;;;9.17;6.70;;;0.00;79.00;;;;;;5010413;28;20863;-83
2022/12/11 11:58:59;;;;;;;7.93;6.23;;;-0.10;80.40;;;;;;5008472;28;20206;-82
2022/12/11 12:01:34;;;;;;;8.60;6.27;;;0.00;79.40;;;;;;5011544;28;20202;-83
2022/12/11 12:04:11;;;;;;;9.03;6.17;;;-0.20;81.70;;;;;;5008121;28;20204;-82
2022/12/11 12:07:08;;;;;;;8.47;5.80;;;-0.30;82.00;;;;;;5012903;28;20208;-84
2022/12/11 12:10:13;;;;;;;6.10;4.67;;;-0.40;81.60;;;;;;5013522;28;20211;-86
2022/12/11 12:12:59;;;;;;;7.90;5.50;;;-0.50;81.00;;;;;;5010829;28;20195;-86
2022/12/11 12:15:38;;;;;;;7.67;5.70;;;-0.60;82.30;;;;;;5008340;28;20295;-86
2022/12/11 12:18:21;;;;;;;9.33;6.23;;;-0.50;83.00;;;;;;4998645;28;20242;-86
2022/12/11 12:20:55;;;;;;;9.57;5.90;;;-0.50;84.50;;;;;;4999011;28;20200;-80
2022/12/11 12:23:48;;;;;;;9.37;5.90;;;-0.40;83.90;;;;;;5003488;28;20709;-79
2022/12/11 12:26:22;;;;;;;9.23;6.57;;;-0.30;83.90;;;;;;4962568;28;20295;-78
2022/12/11 12:29:17;;;;;;;8.40;5.97;;;-0.10;85.20;;;;;;4967151;28;20318;-77
2022/12/11 12:32:34;;;;;;;9.47;6.17;;;0.00;80.80;;;;;;4968304;28;20197;-80
2022/12/11 12:35:15;;;;;;;8.07;5.53;;;0.10;79.20;;;;;;4967860;28;20501;-78
2022/12/11 12:37:59;;;;;;;7.97;5.40;;;0.10;78.90;;;;;;4968511;28;20204;-77
2022/12/11 12:40:39;;;;;;;8.17;5.40;;;0.10;77.40;;;;;;4967343;28;20291;-77
2022/12/11 12:43:41;;;;;;;8.67;5.60;;;0.20;77.40;;;;;;4968013;28;20327;-78
2022/12/11 12:46:42;;;;;;;7.77;5.47;;;0.50;78.50;;;;;;4966658;28;20216;-77
2022/12/11 12:49:15;;;;;;;7.87;5.67;;;0.40;75.70;;;;;;4963623;28;20375;-80
2022/12/11 12:51:55;;;;;;;7.60;5.53;;;0.50;77.00;;;;;;4966897;28;20213;-80
2022/12/11 12:54:23;;;;;;;8.73;6.20;;;0.50;75.50;;;;;;4967297;28;20232;-82
2022/12/11 12:56:52;;;;;;;8.37;6.10;;;0.60;76.20;;;;;;4969033;28;20205;-79
2022/12/11 12:59:22;;;;;;;8.13;6.30;;;0.80;77.40;;;;;;4969119;28;20212;-80
2022/12/11 13:02:13;;;;;;;8.47;6.33;;;0.80;76.70;;;;;;4965763;28;20332;-79
2022/12/11 13:04:56;;;;;;;7.97;6.73;;;0.90;76.70;;;;;;5000414;28;20270;-79
2022/12/11 13:07:28;;;;;;;9.40;6.77;;;0.80;75.70;;;;;;4999765;28;20211;-78
2022/12/11 13:10:03;;;;;;;10.80;6.60;;;0.80;76.70;;;;;;5002057;28;20227;-80
2022/12/11 13:12:52;;;;;;;10.43;6.73;;;0.70;76.20;;;;;;5007211;28;20313;-83
2022/12/11 13:15:37;;;;;;;9.73;7.70;;;0.60;78.00;;;;;;5001297;28;20283;-81
2022/12/11 13:18:34;;;;;;;10.40;6.37;;;0.50;78.50;;;;;;5002276;28;20204;-80